sensor_id;sensor_type;location;lat;lon;timestamp;pressure;altitude;pressure_sealevel;temperature;humidity
63535;BME280;55128;50.230;18.944;2024-03-23T00:56:48;97806.88;;;10.86;70.94
63535;BME280;55128;50.230;18.944;2024-03-23T01:01:48;97796.47;;;10.83;71.56
63535;BME280;55128;50.230;18.944;2024-03-23T01:06:48;97790.03;;;10.87;71.66
63535;BME280;55128;50.230;18.944;2024-03-23T01:11:49;97787.16;;;10.76;72.04
63535;BME280;55128;50.230;18.944;2024-03-23T01:16:49;97777.84;;;10.69;72.21
63535;BME280;55128;50.230;18.944;2024-03-23T01:21:50;97776.34;;;10.65;71.93
63535;BME280;55128;50.230;18.944;2024-03-23T01:26:50;97764.28;;;10.59;71.26
63535;BME280;55128;50.230;18.944;2024-03-23T01:31:50;97767.13;;;10.56;70.88
63535;BME280;55128;50.230;18.944;2024-03-23T01:36:51;97753.03;;;10.40;71.72
63535;BME280;55128;50.230;18.944;2024-03-23T01:41:52;97748.41;;;10.43;72.25
63535;BME280;55128;50.230;18.944;2024-03-23T01:46:52;97750.34;;;10.56;72.18
63535;BME280;55128;50.230;18.944;2024-03-23T01:51:53;97745.78;;;10.58;72.59
63535;BME280;55128;50.230;18.944;2024-03-23T01:56:54;97740.88;;;10.66;73.54
63535;BME280;55128;50.230;18.944;2024-03-23T02:01:55;97741.25;;;10.60;73.79
63535;BME280;55128;50.230;18.944;2024-03-23T02:06:56;97738.81;;;10.57;74.96
63535;BME280;55128;50.230;18.944;2024-03-23T02:11:56;97725.03;;;10.50;74.83
63535;BME280;55128;50.230;18.944;2024-03-23T02:16:56;97718.69;;;10.53;75.59
63535;BME280;55128;50.230;18.944;2024-03-23T02:21:57;97714.78;;;10.58;74.01
63535;BME280;55128;50.230;18.944;2024-03-23T02:26:57;97715.34;;;10.49;75.56
63535;BME280;55128;50.230;18.944;2024-03-23T02:31:57;97727.09;;;10.45;75.28
63535;BME280;55128;50.230;18.944;2024-03-23T02:36:59;97704.06;;;10.31;74.98
63535;BME280;55128;50.230;18.944;2024-03-23T02:41:59;97679.41;;;10.29;75.02
63535;BME280;55128;50.230;18.944;2024-03-23T02:46:59;97689.84;;;10.32;76.25
63535;BME280;55128;50.230;18.944;2024-03-23T02:52:00;97695.66;;;10.23;76.16
63535;BME280;55128;50.230;18.944;2024-03-23T02:57:00;97682.59;;;10.20;76.04
63535;BME280;55128;50.230;18.944;2024-03-23T03:02:00;97674.44;;;10.08;76.38
63535;BME280;55128;50.230;18.944;2024-03-23T03:07:01;97670.72;;;10.11;77.24
63535;BME280;55128;50.230;18.944;2024-03-23T03:12:02;97680.63;;;10.23;76.46
63535;BME280;55128;50.230;18.944;2024-03-23T03:17:03;97674.28;;;10.26;76.92
63535;BME280;55128;50.230;18.944;2024-03-23T03:22:04;97659.19;;;10.26;77.14
63535;BME280;55128;50.230;18.944;2024-03-23T03:27:04;97647.56;;;10.29;77.11
63535;BME280;55128;50.230;18.944;2024-03-23T03:32:07;97640.34;;;10.02;77.74
63535;BME280;55128;50.230;18.944;2024-03-23T03:37:07;97648.47;;;9.69;80.33
63535;BME280;55128;50.230;18.944;2024-03-23T03:42:07;97645.75;;;9.70;80.85
63535;BME280;55128;50.230;18.944;2024-03-23T03:47:08;97634.56;;;9.80;80.57
63535;BME280;55128;50.230;18.944;2024-03-23T03:52:08;97633.41;;;10.00;80.36
63535;BME280;55128;50.230;18.944;2024-03-23T03:57:09;97615.44;;;10.19;79.68
63535;BME280;55128;50.230;18.944;2024-03-23T04:02:09;97633.03;;;9.61;81.90
63535;BME280;55128;50.230;18.944;2024-03-23T04:07:09;97622.56;;;9.88;81.07
63535;BME280;55128;50.230;18.944;2024-03-23T04:12:10;97617.16;;;9.76;81.23
63535;BME280;55128;50.230;18.944;2024-03-23T04:17:10;97613.44;;;9.64;81.64
63535;BME280;55128;50.230;18.944;2024-03-23T04:22:11;97602.28;;;9.73;81.24
63535;BME280;55128;50.230;18.944;2024-03-23T04:27:11;97582.97;;;9.71;81.70
63535;BME280;55128;50.230;18.944;2024-03-23T04:32:12;97591.53;;;9.76;82.51
63535;BME280;55128;50.230;18.944;2024-03-23T04:37:14;97584.53;;;9.89;81.38
63535;BME280;55128;50.230;18.944;2024-03-23T04:42:15;97572.13;;;9.90;81.83
63535;BME280;55128;50.230;18.944;2024-03-23T04:47:16;97571.47;;;9.86;81.83
63535;BME280;55128;50.230;18.944;2024-03-23T04:52:17;97578.66;;;9.84;82.01
63535;BME280;55128;50.230;18.944;2024-03-23T04:57:18;97576.59;;;9.89;82.40
63535;BME280;55128;50.230;18.944;2024-03-23T05:02:18;97567.88;;;9.87;82.25
63535;BME280;55128;50.230;18.944;2024-03-23T05:07:19;97570.53;;;9.87;81.86
63535;BME280;55128;50.230;18.944;2024-03-23T05:12:19;97561.53;;;9.90;81.44
63535;BME280;55128;50.230;18.944;2024-03-23T05:17:19;97558.69;;;10.07;81.54
63535;BME280;55128;50.230;18.944;2024-03-23T05:22:20;97554.13;;;10.09;82.04
63535;BME280;55128;50.230;18.944;2024-03-23T05:27:20;97556.63;;;10.27;81.46
63535;BME280;55128;50.230;18.944;2024-03-23T05:32:20;97550.56;;;10.25;82.16
63535;BME280;55128;50.230;18.944;2024-03-23T05:37:22;97544.91;;;10.31;81.88
63535;BME280;55128;50.230;18.944;2024-03-23T05:42:22;97540.94;;;10.38;81.13
63535;BME280;55128;50.230;18.944;2024-03-23T05:47:23;97532.75;;;10.12;81.28
63535;BME280;55128;50.230;18.944;2024-03-23T05:52:23;97539.00;;;10.26;80.29
63535;BME280;55128;50.230;18.944;2024-03-23T05:57:25;97535.41;;;10.41;79.43
63535;BME280;55128;50.230;18.944;2024-03-23T06:02:26;97506.59;;;10.49;79.65
63535;BME280;55128;50.230;18.944;2024-03-23T06:07:26;97504.50;;;10.55;78.76
63535;BME280;55128;50.230;18.944;2024-03-23T06:12:27;97503.31;;;10.73;79.63
63535;BME280;55128;50.230;18.944;2024-03-23T06:17:27;97485.47;;;10.75;79.24
63535;BME280;55128;50.230;18.944;2024-03-23T06:22:28;97490.28;;;10.83;80.59
63535;BME280;55128;50.230;18.944;2024-03-23T06:27:28;97483.13;;;10.98;79.59
63535;BME280;55128;50.230;18.944;2024-03-23T06:32:29;97474.41;;;10.96;80.06
63535;BME280;55128;50.230;18.944;2024-03-23T06:37:29;97486.31;;;11.30;80.62
63535;BME280;55128;50.230;18.944;2024-03-23T06:42:30;97477.16;;;11.60;80.43
63535;BME280;55128;50.230;18.944;2024-03-23T06:47:30;97481.75;;;11.58;81.30
63535;BME280;55128;50.230;18.944;2024-03-23T06:52:31;97479.00;;;11.85;81.26
63535;BME280;55128;50.230;18.944;2024-03-23T06:57:31;97475.84;;;12.42;78.76
63535;BME280;55128;50.230;18.944;2024-03-23T07:02:32;97472.31;;;12.79;76.18
63535;BME280;55128;50.230;18.944;2024-03-23T07:07:32;97461.63;;;13.63;72.60
63535;BME280;55128;50.230;18.944;2024-03-23T07:12:32;97466.28;;;15.27;70.26
63535;BME280;55128;50.230;18.944;2024-03-23T07:17:33;97464.59;;;15.47;64.24
63535;BME280;55128;50.230;18.944;2024-03-23T07:22:35;97460.25;;;15.88;60.71
63535;BME280;55128;50.230;18.944;2024-03-23T07:27:35;97463.22;;;15.94;60.52
63535;BME280;55128;50.230;18.944;2024-03-23T07:32:36;97459.84;;;15.50;59.44
63535;BME280;55128;50.230;18.944;2024-03-23T07:37:36;97458.75;;;14.88;62.95
63535;BME280;55128;50.230;18.944;2024-03-23T07:42:36;97461.97;;;14.71;62.00
63535;BME280;55128;50.230;18.944;2024-03-23T07:47:37;97455.38;;;14.86;62.32
63535;BME280;55128;50.230;18.944;2024-03-23T07:52:37;97451.53;;;17.74;63.45
63535;BME280;55128;50.230;18.944;2024-03-23T07:57:37;97442.56;;;19.76;54.67
63535;BME280;55128;50.230;18.944;2024-03-23T08:02:38;97422.31;;;22.94;45.15
63535;BME280;55128;50.230;18.944;2024-03-23T08:07:39;97425.19;;;25.47;41.90
63535;BME280;55128;50.230;18.944;2024-03-23T08:12:39;97433.91;;;27.91;31.94
63535;BME280;55128;50.230;18.944;2024-03-23T08:17:39;97420.00;;;28.92;29.50
63535;BME280;55128;50.230;18.944;2024-03-23T08:22:40;97415.16;;;29.96;28.74
63535;BME280;55128;50.230;18.944;2024-03-23T08:27:40;97399.41;;;29.59;25.42
63535;BME280;55128;50.230;18.944;2024-03-23T08:32:41;97399.69;;;27.56;25.89
63535;BME280;55128;50.230;18.944;2024-03-23T08:37:42;97375.81;;;23.44;31.63
63535;BME280;55128;50.230;18.944;2024-03-23T08:42:42;97364.56;;;23.47;32.41
63535;BME280;55128;50.230;18.944;2024-03-23T08:47:43;97358.59;;;24.71;30.08
63535;BME280;55128;50.230;18.944;2024-03-23T08:52:44;97352.69;;;27.60;28.83
63535;BME280;55128;50.230;18.944;2024-03-23T08:57:44;97346.00;;;27.89;26.02
63535;BME280;55128;50.230;18.944;2024-03-23T09:02:47;97328.47;;;28.30;26.15
63535;BME280;55128;50.230;18.944;2024-03-23T09:07:48;97315.94;;;28.03;26.03
63535;BME280;55128;50.230;18.944;2024-03-23T09:12:48;97311.56;;;28.47;24.98
63535;BME280;55128;50.230;18.944;2024-03-23T09:17:48;97299.56;;;28.03;24.29
63535;BME280;55128;50.230;18.944;2024-03-23T09:22:49;97296.91;;;27.63;25.03
63535;BME280;55128;50.230;18.944;2024-03-23T09:27:50;97291.41;;;26.76;25.33
63535;BME280;55128;50.230;18.944;2024-03-23T09:32:50;97278.66;;;26.83;26.36
63535;BME280;55128;50.230;18.944;2024-03-23T09:37:51;97248.06;;;27.08;25.32
63535;BME280;55128;50.230;18.944;2024-03-23T09:42:51;97243.84;;;27.59;26.08
63535;BME280;55128;50.230;18.944;2024-03-23T09:47:52;97236.03;;;29.73;23.90
63535;BME280;55128;50.230;18.944;2024-03-23T09:52:53;97224.94;;;31.19;21.00
63535;BME280;55128;50.230;18.944;2024-03-23T09:57:53;97206.50;;;29.57;21.55
63535;BME280;55128;50.230;18.944;2024-03-23T10:02:58;97181.63;;;30.14;21.51
63535;BME280;55128;50.230;18.944;2024-03-23T10:13:23;97170.56;;;27.82;22.93
63535;BME280;55128;50.230;18.944;2024-03-23T10:18:25;97161.63;;;25.53;25.54
63535;BME280;55128;50.230;18.944;2024-03-23T10:23:26;97154.03;;;24.79;27.15
63535;BME280;55128;50.230;18.944;2024-03-23T10:28:29;97141.09;;;23.88;28.61
63535;BME280;55128;50.230;18.944;2024-03-23T10:33:29;97132.38;;;23.41;29.58
63535;BME280;55128;50.230;18.944;2024-03-23T10:38:31;97130.38;;;22.76;30.74
63535;BME280;55128;50.230;18.944;2024-03-23T10:43:33;97115.34;;;22.58;30.56
63535;BME280;55128;50.230;18.944;2024-03-23T10:48:33;97108.34;;;22.64;31.10
63535;BME280;55128;50.230;18.944;2024-03-23T10:53:34;97098.03;;;22.44;31.65
63535;BME280;55128;50.230;18.944;2024-03-23T10:58:40;97065.88;;;21.88;31.91
63535;BME280;55128;50.230;18.944;2024-03-23T11:03:47;97065.72;;;21.90;31.34
63535;BME280;55128;50.230;18.944;2024-03-23T11:08:47;97051.38;;;21.66;31.46
63535;BME280;55128;50.230;18.944;2024-03-23T11:13:49;97028.56;;;21.46;32.11
63535;BME280;55128;50.230;18.944;2024-03-23T11:18:51;96998.34;;;21.42;31.50
63535;BME280;55128;50.230;18.944;2024-03-23T11:23:51;96989.13;;;21.05;31.24
63535;BME280;55128;50.230;18.944;2024-03-23T11:29:09;96984.19;;;21.63;32.39
63535;BME280;55128;50.230;18.944;2024-03-23T11:34:09;96970.44;;;21.73;30.90
63535;BME280;55128;50.230;18.944;2024-03-23T11:39:17;96956.22;;;21.79;31.37
63535;BME280;55128;50.230;18.944;2024-03-23T11:44:19;96932.75;;;21.33;31.43
63535;BME280;55128;50.230;18.944;2024-03-23T11:49:24;96922.22;;;21.47;31.34
63535;BME280;55128;50.230;18.944;2024-03-23T11:54:26;96902.41;;;21.08;31.29
63535;BME280;55128;50.230;18.944;2024-03-23T11:59:45;96894.22;;;21.40;31.59
63535;BME280;55128;50.230;18.944;2024-03-23T12:04:45;96876.25;;;21.55;31.60
63535;BME280;55128;50.230;18.944;2024-03-23T12:10:05;96854.69;;;21.70;31.18
63535;BME280;55128;50.230;18.944;2024-03-23T12:15:10;96846.63;;;21.47;30.88
63535;BME280;55128;50.230;18.944;2024-03-23T12:20:12;96841.53;;;21.67;30.59
63535;BME280;55128;50.230;18.944;2024-03-23T12:25:13;96827.56;;;21.63;30.18
63535;BME280;55128;50.230;18.944;2024-03-23T12:30:14;96813.50;;;21.83;29.84
63535;BME280;55128;50.230;18.944;2024-03-23T12:35:14;96798.22;;;21.90;30.23
63535;BME280;55128;50.230;18.944;2024-03-23T12:40:14;96794.31;;;21.92;29.41
63535;BME280;55128;50.230;18.944;2024-03-23T12:45:15;96775.66;;;21.83;29.11
63535;BME280;55128;50.230;18.944;2024-03-23T12:50:15;96769.03;;;21.41;28.33
63535;BME280;55128;50.230;18.944;2024-03-23T12:55:16;96768.50;;;21.60;28.68
63535;BME280;55128;50.230;18.944;2024-03-23T13:00:16;96765.91;;;21.82;28.87
63535;BME280;55128;50.230;18.944;2024-03-23T13:05:17;96768.03;;;21.71;27.52
63535;BME280;55128;50.230;18.944;2024-03-23T13:10:17;96760.78;;;21.87;27.52
63535;BME280;55128;50.230;18.944;2024-03-23T13:15:17;96759.56;;;21.45;28.49
63535;BME280;55128;50.230;18.944;2024-03-23T13:20:19;96751.31;;;21.08;28.92
63535;BME280;55128;50.230;18.944;2024-03-23T13:25:20;96750.19;;;20.80;29.80
63535;BME280;55128;50.230;18.944;2024-03-23T13:30:21;96759.72;;;20.90;29.78
63535;BME280;55128;50.230;18.944;2024-03-23T13:35:21;96769.81;;;20.73;30.16
63535;BME280;55128;50.230;18.944;2024-03-23T13:40:22;96815.38;;;20.37;31.13
63535;BME280;55128;50.230;18.944;2024-03-23T13:45:23;96975.72;;;18.51;45.45
63535;BME280;55128;50.230;18.944;2024-03-23T13:50:23;96994.03;;;15.06;67.88
63535;BME280;55128;50.230;18.944;2024-03-23T13:55:24;97035.84;;;14.15;72.78
63535;BME280;55128;50.230;18.944;2024-03-23T14:00:24;97060.41;;;13.67;73.64
63535;BME280;55128;50.230;18.944;2024-03-23T14:05:25;97085.16;;;13.36;76.38
63535;BME280;55128;50.230;18.944;2024-03-23T14:10:26;97100.81;;;13.51;76.25
63535;BME280;55128;50.230;18.944;2024-03-23T14:15:27;97087.66;;;13.27;76.79
63535;BME280;55128;50.230;18.944;2024-03-23T14:20:28;97074.38;;;13.15;78.54
63535;BME280;55128;50.230;18.944;2024-03-23T14:25:28;97042.94;;;12.98;76.70
63535;BME280;55128;50.230;18.944;2024-03-23T14:30:29;97028.28;;;13.03;78.54
63535;BME280;55128;50.230;18.944;2024-03-23T14:35:30;97004.34;;;13.25;77.91
63535;BME280;55128;50.230;18.944;2024-03-23T14:40:31;96989.75;;;13.40;77.52
63535;BME280;55128;50.230;18.944;2024-03-23T14:45:31;96996.31;;;13.03;77.04
63535;BME280;55128;50.230;18.944;2024-03-23T14:50:32;96991.97;;;12.91;77.71
63535;BME280;55128;50.230;18.944;2024-03-23T14:55:34;96997.34;;;12.80;79.26
63535;BME280;55128;50.230;18.944;2024-03-23T15:00:34;97003.56;;;12.69;78.30
63535;BME280;55128;50.230;18.944;2024-03-23T15:05:35;97010.34;;;12.51;81.51
63535;BME280;55128;50.230;18.944;2024-03-23T15:10:38;97036.84;;;12.52;80.32
63535;BME280;55128;50.230;18.944;2024-03-23T15:15:43;97053.16;;;12.48;79.24
63535;BME280;55128;50.230;18.944;2024-03-23T15:20:53;97056.66;;;12.37;80.40
63535;BME280;55128;50.230;18.944;2024-03-23T15:26:03;97046.63;;;12.40;81.16
63535;BME280;55128;50.230;18.944;2024-03-23T15:31:05;97033.31;;;12.29;80.08
63535;BME280;55128;50.230;18.944;2024-03-23T15:36:06;97034.53;;;12.14;82.12
63535;BME280;55128;50.230;18.944;2024-03-23T15:41:06;97027.38;;;12.14;82.19
63535;BME280;55128;50.230;18.944;2024-03-23T15:46:07;97040.13;;;12.22;82.58
63535;BME280;55128;50.230;18.944;2024-03-23T15:51:10;97049.44;;;12.16;81.88
63535;BME280;55128;50.230;18.944;2024-03-23T15:56:10;97050.63;;;12.23;82.70
63535;BME280;55128;50.230;18.944;2024-03-23T16:01:11;97062.59;;;12.18;81.78
63535;BME280;55128;50.230;18.944;2024-03-23T16:06:11;97063.78;;;12.14;81.99
63535;BME280;55128;50.230;18.944;2024-03-23T16:11:12;97067.44;;;12.24;82.58
63535;BME280;55128;50.230;18.944;2024-03-23T16:16:12;97066.13;;;11.83;83.37
63535;BME280;55128;50.230;18.944;2024-03-23T16:21:12;97077.38;;;11.51;86.45
63535;BME280;55128;50.230;18.944;2024-03-23T16:26:13;97171.03;;;11.55;85.94
63535;BME280;55128;50.230;18.944;2024-03-23T16:31:16;97205.47;;;11.19;84.93
63535;BME280;55128;50.230;18.944;2024-03-23T16:36:17;97216.56;;;10.75;83.85
63535;BME280;55128;50.230;18.944;2024-03-23T16:41:18;97250.22;;;9.94;79.72
63535;BME280;55128;50.230;18.944;2024-03-23T16:46:18;97292.25;;;9.59;81.25
63535;BME280;55128;50.230;18.944;2024-03-23T16:51:19;97306.38;;;8.73;81.60
63535;BME280;55128;50.230;18.944;2024-03-23T16:56:21;97315.38;;;8.24;84.32
63535;BME280;55128;50.230;18.944;2024-03-23T17:01:21;97324.44;;;8.04;85.03
63535;BME280;55128;50.230;18.944;2024-03-23T17:06:23;97334.25;;;8.02;84.75
63535;BME280;55128;50.230;18.944;2024-03-23T17:11:25;97344.81;;;8.02;83.76
63535;BME280;55128;50.230;18.944;2024-03-23T17:16:26;97354.50;;;8.17;83.51
63535;BME280;55128;50.230;18.944;2024-03-23T17:21:35;97365.34;;;7.97;83.63
63535;BME280;55128;50.230;18.944;2024-03-23T17:26:56;97374.03;;;7.67;83.50
63535;BME280;55128;50.230;18.944;2024-03-23T17:31:56;97396.41;;;7.60;82.95
63535;BME280;55128;50.230;18.944;2024-03-23T17:36:57;97386.97;;;7.56;83.18
63535;BME280;55128;50.230;18.944;2024-03-23T17:41:57;97403.06;;;7.51;83.43
63535;BME280;55128;50.230;18.944;2024-03-23T17:46:58;97405.44;;;7.40;81.53
63535;BME280;55128;50.230;18.944;2024-03-23T17:52:07;97421.38;;;7.21;80.70
63535;BME280;55128;50.230;18.944;2024-03-23T17:57:11;97439.84;;;7.04;81.17
63535;BME280;55128;50.230;18.944;2024-03-23T18:02:13;97440.53;;;7.07;79.86
63535;BME280;55128;50.230;18.944;2024-03-23T18:07:16;97459.25;;;6.85;79.96
63535;BME280;55128;50.230;18.944;2024-03-23T18:12:16;97471.41;;;6.70;80.35
63535;BME280;55128;50.230;18.944;2024-03-23T18:17:17;97485.84;;;6.80;79.71
63535;BME280;55128;50.230;18.944;2024-03-23T18:22:17;97480.81;;;6.76;78.49
63535;BME280;55128;50.230;18.944;2024-03-23T18:27:18;97470.09;;;6.79;78.33
63535;BME280;55128;50.230;18.944;2024-03-23T18:32:18;97468.06;;;6.67;78.33
63535;BME280;55128;50.230;18.944;2024-03-23T18:37:18;97484.34;;;6.57;78.08
63535;BME280;55128;50.230;18.944;2024-03-23T18:42:19;97490.84;;;6.50;78.43
63535;BME280;55128;50.230;18.944;2024-03-23T18:47:19;97501.50;;;6.47;78.29
63535;BME280;55128;50.230;18.944;2024-03-23T18:52:20;97504.78;;;6.52;78.13
63535;BME280;55128;50.230;18.944;2024-03-23T18:57:21;97506.94;;;6.44;77.97
63535;BME280;55128;50.230;18.944;2024-03-23T19:02:22;97504.44;;;6.41;76.79
63535;BME280;55128;50.230;18.944;2024-03-23T19:07:22;97501.34;;;6.33;77.57
63535;BME280;55128;50.230;18.944;2024-03-23T19:12:23;97510.28;;;6.48;75.85
63535;BME280;55128;50.230;18.944;2024-03-23T19:17:23;97495.13;;;6.34;73.95
63535;BME280;55128;50.230;18.944;2024-03-23T19:22:24;97492.78;;;6.28;74.50
63535;BME280;55128;50.230;18.944;2024-03-23T19:27:24;97470.25;;;6.39;74.20
63535;BME280;55128;50.230;18.944;2024-03-23T19:32:25;97476.72;;;6.32;73.01
63535;BME280;55128;50.230;18.944;2024-03-23T19:37:27;97486.22;;;6.36;72.59
63535;BME280;55128;50.230;18.944;2024-03-23T19:42:35;97495.16;;;6.51;71.77
63535;BME280;55128;50.230;18.944;2024-03-23T19:47:40;97508.09;;;6.38;72.42
63535;BME280;55128;50.230;18.944;2024-03-23T19:52:40;97521.09;;;6.41;71.99
63535;BME280;55128;50.230;18.944;2024-03-23T19:57:41;97524.16;;;6.51;71.77
63535;BME280;55128;50.230;18.944;2024-03-23T20:02:47;97518.03;;;6.51;70.49
63535;BME280;55128;50.230;18.944;2024-03-23T20:07:51;97503.31;;;6.47;69.33
63535;BME280;55128;50.230;18.944;2024-03-23T20:12:51;97499.19;;;6.22;70.09
63535;BME280;55128;50.230;18.944;2024-03-23T20:17:54;97510.63;;;6.40;73.34
63535;BME280;55128;50.230;18.944;2024-03-23T20:22:55;97516.56;;;6.45;71.33
63535;BME280;55128;50.230;18.944;2024-03-23T20:27:55;97507.09;;;6.41;69.92
63535;BME280;55128;50.230;18.944;2024-03-23T20:32:56;97501.91;;;6.20;69.71
63535;BME280;55128;50.230;18.944;2024-03-23T20:37:56;97506.44;;;6.17;69.96
63535;BME280;55128;50.230;18.944;2024-03-23T20:43:08;97512.44;;;6.20;69.06
63535;BME280;55128;50.230;18.944;2024-03-23T20:48:13;97508.31;;;6.15;68.33
63535;BME280;55128;50.230;18.944;2024-03-23T20:53:13;97503.31;;;6.09;68.40
63535;BME280;55128;50.230;18.944;2024-03-23T20:58:14;97509.66;;;6.05;67.25
63535;BME280;55128;50.230;18.944;2024-03-23T21:03:14;97508.31;;;6.15;67.47
63535;BME280;55128;50.230;18.944;2024-03-23T21:08:15;97515.13;;;6.00;67.49
63535;BME280;55128;50.230;18.944;2024-03-23T21:13:16;97510.88;;;5.97;67.08
63535;BME280;55128;50.230;18.944;2024-03-23T21:18:18;97520.47;;;5.98;67.44
63535;BME280;55128;50.230;18.944;2024-03-23T21:23:19;97530.41;;;5.92;67.15
63535;BME280;55128;50.230;18.944;2024-03-23T21:28:22;97516.97;;;5.98;66.38
63535;BME280;55128;50.230;18.944;2024-03-23T21:33:23;97498.13;;;5.87;66.06
63535;BME280;55128;50.230;18.944;2024-03-23T21:38:24;97490.00;;;5.72;66.43
63535;BME280;55128;50.230;18.944;2024-03-23T21:43:25;97478.69;;;5.70;66.91
63535;BME280;55128;50.230;18.944;2024-03-23T21:48:29;97466.53;;;5.68;67.47
63535;BME280;55128;50.230;18.944;2024-03-23T21:53:34;97470.16;;;6.05;67.61
63535;BME280;55128;50.230;18.944;2024-03-23T21:58:35;97486.09;;;6.01;67.61
63535;BME280;55128;50.230;18.944;2024-03-23T22:03:35;97491.94;;;6.08;66.97
63535;BME280;55128;50.230;18.944;2024-03-23T22:08:36;97480.38;;;5.92;67.40
63535;BME280;55128;50.230;18.944;2024-03-23T22:13:39;97475.09;;;5.92;66.94
63535;BME280;55128;50.230;18.944;2024-03-23T22:18:42;97466.25;;;5.93;67.36
63535;BME280;55128;50.230;18.944;2024-03-23T22:23:42;97452.25;;;5.92;67.23
63535;BME280;55128;50.230;18.944;2024-03-23T22:28:46;97444.69;;;5.84;68.35
63535;BME280;55128;50.230;18.944;2024-03-23T22:33:46;97451.03;;;5.80;68.04
63535;BME280;55128;50.230;18.944;2024-03-23T22:38:46;97448.41;;;5.80;68.32
63535;BME280;55128;50.230;18.944;2024-03-23T22:43:47;97470.25;;;5.82;68.36
63535;BME280;55128;50.230;18.944;2024-03-23T22:48:47;97490.59;;;5.79;68.67
63535;BME280;55128;50.230;18.944;2024-03-23T22:53:48;97499.06;;;5.85;68.69
63535;BME280;55128;50.230;18.944;2024-03-23T22:58:48;97481.50;;;5.86;68.67
63535;BME280;55128;50.230;18.944;2024-03-23T23:03:48;97481.69;;;5.81;69.44
63535;BME280;55128;50.230;18.944;2024-03-23T23:08:49;97479.41;;;5.74;69.76
63535;BME280;55128;50.230;18.944;2024-03-23T23:13:49;97468.03;;;5.73;69.75
63535;BME280;55128;50.230;18.944;2024-03-23T23:18:49;97468.38;;;5.65;70.11
63535;BME280;55128;50.230;18.944;2024-03-23T23:23:50;97473.03;;;5.59;70.47
63535;BME280;55128;50.230;18.944;2024-03-23T23:28:50;97472.19;;;5.58;72.18
63535;BME280;55128;50.230;18.944;2024-03-23T23:33:51;97479.25;;;5.58;71.66
63535;BME280;55128;50.230;18.944;2024-03-23T23:38:51;97484.75;;;5.52;72.29
63535;BME280;55128;50.230;18.944;2024-03-23T23:43:56;97476.19;;;5.48;72.01
63535;BME280;55128;50.230;18.944;2024-03-23T23:48:57;97472.94;;;5.41;72.15
63535;BME280;55128;50.230;18.944;2024-03-23T23:53:58;97464.22;;;5.41;73.01
63535;BME280;55128;50.230;18.944;2024-03-23T23:58:58;97459.78;;;5.41;72.18
